Time;durP1;ratioP1;P1;durP2;ratioP2;P2;SDS_P1;SDS_P2;PMS_P1;PMS_P2;Temp;Humidity;BMP_temperature;BMP_pressure;BME280_temperature;BME280_humidity;BME280_pressure;Samples;Min_cycle;Max_cycle;Signal;HPM_P1;HPM_P2
2023/12/25 15:22:45;;;;;;;45.25;21.23;;;;;;;10.35;100.00;92494.03;5061685;28;20456;-79
2023/12/25 15:25:10;;;;;;;27.73;10.73;;;;;;;10.26;100.00;92487.84;5054917;28;20444;-80
2023/12/25 15:27:37;;;;;;;31.50;13.07;;;;;;;10.18;100.00;92497.91;5028868;28;20250;-79
2023/12/25 15:30:03;;;;;;;10.82;3.75;;;;;;;10.00;100.00;92503.91;5040343;28;20034;-79
2023/12/25 15:32:30;;;;;;;11.27;3.47;;;;;;;9.98;100.00;92509.41;5042157;28;20505;-80
2023/12/25 15:34:55;;;;;;;8.68;3.33;;;;;;;9.81;100.00;92514.31;5040198;28;20041;-79
2023/12/25 15:37:23;;;;;;;11.88;3.22;;;;;;;9.64;100.00;92509.56;5040895;28;20037;-79
2023/12/25 15:39:48;;;;;;;11.57;3.28;;;;;;;9.56;100.00;92512.78;5039959;28;20037;-79
2023/12/25 15:42:14;;;;;;;5.95;2.85;;;;;;;9.49;100.00;92512.34;5032430;28;20098;-79
2023/12/25 15:44:41;;;;;;;8.45;3.05;;;;;;;9.38;100.00;92507.22;5035936;28;20060;-79
2023/12/25 15:47:07;;;;;;;9.25;3.03;;;;;;;9.36;100.00;92519.78;5042082;28;20036;-79
2023/12/25 15:49:35;;;;;;;6.72;2.92;;;;;;;9.31;100.00;92516.44;5050453;28;20443;-80
2023/12/25 15:52:02;;;;;;;11.35;2.75;;;;;;;9.26;100.00;92514.66;5052205;28;20554;-78
2023/12/25 15:54:28;;;;;;;8.80;2.80;;;;;;;9.21;100.00;92517.34;5050557;28;20044;-78
2023/12/25 15:56:54;;;;;;;7.65;3.00;;;;;;;9.13;100.00;92515.31;5045168;28;20042;-79
2023/12/25 15:59:20;;;;;;;11.52;4.18;;;;;;;9.06;100.00;92525.31;5047212;28;20041;-79
2023/12/25 16:01:46;;;;;;;8.88;3.22;;;;;;;8.95;100.00;92522.78;5049794;28;20492;-79
2023/12/25 16:04:12;;;;;;;12.10;3.60;;;;;;;8.84;100.00;92525.75;5036777;28;20584;-79
2023/12/25 16:06:39;;;;;;;9.10;3.72;;;;;;;8.75;100.00;92518.50;5042535;28;20037;-79
2023/12/25 16:09:05;;;;;;;7.85;3.17;;;;;;;8.72;100.00;92519.06;5043061;28;20107;-80
2023/12/25 16:11:30;;;;;;;10.30;2.70;;;;;;;8.63;100.00;92525.13;5043595;28;20025;-79
2023/12/25 16:13:56;;;;;;;12.07;4.05;;;;;;;8.52;100.00;92522.59;5046742;28;20048;-79
2023/12/25 16:16:22;;;;;;;14.55;5.60;;;;;;;8.45;100.00;92518.75;5042702;28;20436;-79
2023/12/25 16:18:47;;;;;;;12.35;4.88;;;;;;;8.37;100.00;92521.88;5040862;28;20037;-79
2023/12/25 16:21:23;;;;;;;9.32;4.03;;;;;;;8.30;100.00;92525.56;5040458;28;20052;-79
2023/12/25 16:23:49;;;;;;;11.20;3.90;;;;;;;8.26;100.00;92524.56;5041391;28;20033;-81
2023/12/25 16:26:15;;;;;;;9.52;3.35;;;;;;;8.24;100.00;92525.88;5044196;28;20163;-79
2023/12/25 16:28:41;;;;;;;10.45;3.47;;;;;;;8.20;100.00;92519.66;5043015;28;20117;-80
2023/12/25 16:31:07;;;;;;;9.48;3.63;;;;;;;8.07;100.00;92519.19;5047422;28;20128;-79
2023/12/25 16:33:33;;;;;;;13.88;5.40;;;;;;;8.03;100.00;92520.78;5032489;28;20045;-78
2023/12/25 16:36:02;;;;;;;18.27;4.90;;;;;;;7.97;100.00;92521.88;5025962;28;20045;-79
2023/12/25 16:38:28;;;;;;;16.67;5.28;;;;;;;7.96;100.00;92522.91;5016906;28;20041;-78
2023/12/25 16:40:54;;;;;;;12.23;6.18;;;;;;;7.91;100.00;92530.75;5017999;28;20029;-79
2023/12/25 16:43:21;;;;;;;10.10;5.10;;;;;;;7.87;100.00;92529.72;5002726;28;20050;-79
2023/12/25 16:45:47;;;;;;;12.73;4.80;;;;;;;7.85;100.00;92534.41;5021722;28;20045;-78
2023/12/25 16:48:12;;;;;;;8.73;3.88;;;;;;;7.78;100.00;92528.72;5024339;28;20029;-79
2023/12/25 16:50:38;;;;;;;11.07;3.90;;;;;;;7.76;100.00;92536.03;5015594;28;20061;-78
2023/12/25 16:53:04;;;;;;;9.15;3.60;;;;;;;7.70;100.00;92543.88;5016218;28;20095;-78
2023/12/25 16:55:29;;;;;;;12.35;4.45;;;;;;;7.66;100.00;92532.41;5028297;28;20095;-78
2023/12/25 16:57:55;;;;;;;18.92;7.40;;;;;;;7.61;100.00;92542.88;5023539;28;20048;-78
2023/12/25 17:00:21;;;;;;;14.57;6.30;;;;;;;7.55;100.00;92538.72;5023244;28;20038;-78
2023/12/25 17:02:47;;;;;;;14.75;5.65;;;;;;;7.50;100.00;92536.13;5027594;28;20067;-77
2023/12/25 17:05:13;;;;;;;11.25;5.07;;;;;;;7.47;100.00;92547.06;5025181;28;20548;-78
2023/12/25 17:07:38;;;;;;;12.35;4.60;;;;;;;7.41;100.00;92550.75;5028404;28;20141;-79
2023/12/25 17:10:05;;;;;;;12.98;4.50;;;;;;;7.31;100.00;92551.53;5021159;28;20063;-78
2023/12/25 17:12:31;;;;;;;10.05;4.63;;;;;;;7.29;100.00;92549.19;5028235;28;20120;-78
2023/12/25 17:14:57;;;;;;;11.80;5.18;;;;;;;7.25;100.00;92557.78;5026010;28;20793;-78
2023/12/25 17:17:22;;;;;;;11.23;4.53;;;;;;;7.20;100.00;92560.41;5024413;28;20040;-78
2023/12/25 17:19:49;;;;;;;12.98;4.28;;;;;;;7.19;100.00;92567.44;5026135;28;20057;-78
2023/12/25 17:22:15;;;;;;;10.13;3.75;;;;;;;7.17;100.00;92561.72;5021844;28;20026;-78
2023/12/25 17:24:42;;;;;;;9.32;3.47;;;;;;;7.14;100.00;92570.06;5020036;28;20051;-77
2023/12/25 17:27:08;;;;;;;8.90;3.65;;;;;;;7.08;100.00;92568.50;5014874;28;20033;-78
2023/12/25 17:29:34;;;;;;;8.52;3.70;;;;;;;7.01;100.00;92575.78;5027459;28;20049;-78
2023/12/25 17:31:59;;;;;;;8.55;3.75;;;;;;;6.97;100.00;92572.13;5027436;28;20033;-77
2023/12/25 17:34:25;;;;;;;7.40;3.72;;;;;;;6.93;100.00;92571.88;5026609;28;20044;-78
2023/12/25 17:36:52;;;;;;;11.38;3.90;;;;;;;6.92;100.00;92569.53;5037104;28;20041;-78
2023/12/25 17:39:18;;;;;;;10.45;3.42;;;;;;;6.87;100.00;92572.94;5030602;28;20049;-79
2023/12/25 17:41:44;;;;;;;9.48;3.90;;;;;;;6.83;100.00;92572.66;5032259;28;20022;-79
2023/12/25 17:44:09;;;;;;;13.27;4.30;;;;;;;6.81;100.00;92577.34;5025410;28;20523;-78
2023/12/25 17:46:35;;;;;;;12.80;5.63;;;;;;;6.81;100.00;92577.34;5033538;28;20044;-78
2023/12/25 17:49:01;;;;;;;11.95;4.38;;;;;;;6.76;100.00;92572.16;5024529;28;20033;-78
2023/12/25 17:51:26;;;;;;;8.25;4.05;;;;;;;6.75;100.00;92580.97;5025186;28;20520;-79
2023/12/25 17:53:52;;;;;;;9.52;3.38;;;;;;;6.71;100.00;92584.34;5028562;28;20052;-78
2023/12/25 17:56:18;;;;;;;9.48;3.80;;;;;;;6.68;100.00;92586.44;5024010;28;20073;-79
2023/12/25 17:58:43;;;;;;;9.75;3.83;;;;;;;6.65;100.00;92592.16;5022893;28;20069;-78
2023/12/25 18:01:09;;;;;;;10.15;3.78;;;;;;;6.63;100.00;92596.06;5025416;28;20421;-80
2023/12/25 18:03:35;;;;;;;7.60;3.50;;;;;;;6.61;100.00;92600.75;5028920;28;20206;-78
2023/12/25 18:06:06;;;;;;;12.70;3.72;;;;;;;6.57;100.00;92600.47;5027129;28;20094;-79
2023/12/25 18:08:32;;;;;;;9.63;4.17;;;;;;;6.56;100.00;92600.75;5027835;28;20034;-79
2023/12/25 18:10:57;;;;;;;9.35;4.45;;;;;;;6.51;100.00;92592.91;5029835;28;20283;-79
2023/12/25 18:13:24;;;;;;;11.75;4.30;;;;;;;6.52;100.00;92592.66;5027038;28;20493;-79
2023/12/25 18:15:50;;;;;;;9.77;4.00;;;;;;;6.52;100.00;92599.69;5008180;28;20025;-79
2023/12/25 18:18:16;;;;;;;9.27;3.72;;;;;;;6.52;100.00;92597.09;5025323;28;20480;-80
2023/12/25 18:20:41;;;;;;;14.20;3.85;;;;;;;6.51;100.00;92596.31;5030119;28;20037;-79
2023/12/25 18:23:07;;;;;;;12.85;4.38;;;;;;;6.47;100.00;92598.63;5031325;28;20131;-79
2023/12/25 18:25:34;;;;;;;14.98;5.50;;;;;;;6.42;100.00;92590.84;5033775;28;20099;-79
2023/12/25 18:27:59;;;;;;;15.35;6.18;;;;;;;6.39;100.00;92609.53;5028315;28;20751;-79
2023/12/25 18:30:25;;;;;;;10.52;4.10;;;;;;;6.36;100.00;92612.66;5033039;28;20097;-80
2023/12/25 18:32:50;;;;;;;11.05;3.60;;;;;;;6.34;100.00;92606.16;5033867;28;20053;-80
2023/12/25 18:35:16;;;;;;;8.52;3.00;;;;;;;6.33;100.00;92615.78;5045261;28;20068;-81
2023/12/25 18:37:41;;;;;;;9.50;3.30;;;;;;;6.29;100.00;92612.13;5030449;28;20046;-80
2023/12/25 18:40:08;;;;;;;11.57;3.03;;;;;;;6.28;100.00;92614.97;5031750;28;20037;-80
2023/12/25 18:42:33;;;;;;;9.10;3.08;;;;;;;6.28;100.00;92614.97;5035377;28;20065;-79
2023/12/25 18:44:59;;;;;;;10.52;3.13;;;;;;;6.25;100.00;92618.88;5022521;28;20068;-79
2023/12/25 18:47:25;;;;;;;7.97;3.22;;;;;;;6.24;100.00;92619.91;5031620;28;20041;-79
2023/12/25 18:49:51;;;;;;;8.50;3.35;;;;;;;6.16;100.00;92610.00;5032199;28;20033;-80
2023/12/25 18:52:16;;;;;;;11.30;3.53;;;;;;;6.14;100.00;92618.06;5032840;28;20044;-80
2023/12/25 18:54:42;;;;;;;9.77;3.00;;;;;;;6.12;100.00;92611.53;5029279;28;20039;-79
2023/12/25 18:57:09;;;;;;;11.73;3.47;;;;;;;6.10;100.00;92622.19;5021729;28;20090;-84
2023/12/25 18:59:38;;;;;;;10.57;3.35;;;;;;;6.11;100.00;92617.78;5025067;28;20034;-79
2023/12/25 19:02:03;;;;;;;11.98;4.80;;;;;;;6.09;100.00;92619.88;5027256;28;20036;-79
2023/12/25 19:04:29;;;;;;;7.80;3.72;;;;;;;6.06;100.00;92621.16;5025638;28;20041;-79
2023/12/25 19:06:56;;;;;;;9.25;3.47;;;;;;;6.01;100.00;92619.31;5027198;28;20037;-79
2023/12/25 19:09:21;;;;;;;8.13;2.97;;;;;;;6.03;100.00;92617.25;5022716;28;22256;-79
2023/12/25 19:11:47;;;;;;;10.23;4.20;;;;;;;6.02;100.00;92622.69;5028897;28;20030;-79
2023/12/25 19:14:15;;;;;;;9.80;4.18;;;;;;;6.01;100.00;92623.72;5038039;28;20044;-80
2023/12/25 19:16:43;;;;;;;9.45;4.22;;;;;;;6.00;100.00;92622.94;5025535;28;20321;-79
2023/12/25 19:19:08;;;;;;;12.95;4.80;;;;;;;6.01;100.00;92627.13;5029271;28;20031;-79
2023/12/25 19:21:34;;;;;;;8.65;3.88;;;;;;;6.01;100.00;92627.13;5029750;28;20053;-79
2023/12/25 19:24:00;;;;;;;7.00;3.50;;;;;;;5.99;100.00;92630.97;5030349;28;20046;-80
2023/12/25 19:26:27;;;;;;;10.82;3.90;;;;;;;5.86;100.00;92603.63;5032621;28;20046;-79
2023/12/25 19:28:54;;;;;;;10.02;4.50;;;;;;;5.94;100.00;92623.94;5028785;28;20076;-79
2023/12/25 19:31:25;;;;;;;13.02;3.65;;;;;;;5.93;100.00;92622.38;5031364;28;20025;-79
2023/12/25 19:33:51;;;;;;;8.15;3.67;;;;;;;5.96;100.00;92631.50;5028392;28;20049;-79
2023/12/25 19:36:17;;;;;;;9.07;3.60;;;;;;;5.94;100.00;92636.94;5026733;28;20043;-80
2023/12/25 19:38:42;;;;;;;12.02;4.07;;;;;;;5.91;100.00;92627.03;5032332;28;20133;-82
2023/12/25 19:41:09;;;;;;;13.35;3.85;;;;;;;5.86;100.00;92632.22;5026788;28;20085;-79
2023/12/25 19:43:35;;;;;;;13.32;4.63;;;;;;;5.83;100.00;92632.69;5030419;28;20092;-81
2023/12/25 19:46:01;;;;;;;10.18;5.13;;;;;;;5.80;100.00;92634.00;5024780;28;20041;-80
2023/12/25 19:48:27;;;;;;;13.00;4.70;;;;;;;5.78;100.00;92635.28;5022772;28;20060;-80
2023/12/25 19:50:55;;;;;;;14.23;5.05;;;;;;;5.74;100.00;92634.22;5018889;28;20025;-80
2023/12/25 19:53:20;;;;;;;9.85;3.95;;;;;;;5.75;100.00;92625.41;5028658;28;20041;-80
2023/12/25 19:55:46;;;;;;;11.35;4.07;;;;;;;5.73;100.00;92633.44;5020632;28;20072;-80
2023/12/25 19:58:12;;;;;;;10.55;4.57;;;;;;;5.69;100.00;92634.19;5025032;28;20050;-80
2023/12/25 20:00:37;;;;;;;11.57;4.35;;;;;;;5.66;100.00;92626.94;5023400;28;20371;-80
2023/12/25 20:03:03;;;;;;;9.80;4.47;;;;;;;5.64;100.00;92624.56;5028497;28;20501;-80
2023/12/25 20:05:28;;;;;;;10.55;4.82;;;;;;;5.62;100.00;92626.63;5023017;28;20037;-81
2023/12/25 20:07:54;;;;;;;15.30;5.30;;;;;;;5.62;100.00;92632.59;5023448;28;20040;-80
2023/12/25 20:10:20;;;;;;;14.55;4.15;;;;;;;5.62;100.00;92624.81;5029958;28;20279;-80
2023/12/25 20:12:45;;;;;;;13.43;4.55;;;;;;;5.60;100.00;92628.69;5032964;28;20041;-80
2023/12/25 20:15:11;;;;;;;12.18;5.82;;;;;;;5.62;100.00;92624.81;5037988;28;20032;-80
2023/12/25 20:17:37;;;;;;;19.33;6.13;;;;;;;5.59;100.00;92625.31;5035358;28;20037;-80
2023/12/25 20:20:04;;;;;;;13.63;6.30;;;;;;;5.60;100.00;92624.28;5027998;28;20032;-80
2023/12/25 20:22:30;;;;;;;16.42;7.05;;;;;;;5.62;100.00;92627.41;5033115;28;20041;-79
2023/12/25 20:24:56;;;;;;;15.68;7.20;;;;;;;5.63;100.00;92623.78;5036252;28;20053;-80
2023/12/25 20:27:22;;;;;;;13.30;5.13;;;;;;;5.64;100.00;92627.16;5033427;28;20056;-79
2023/12/25 20:29:48;;;;;;;14.73;5.30;;;;;;;5.66;100.00;92632.13;5034206;28;20333;-80
2023/12/25 20:32:14;;;;;;;12.93;5.72;;;;;;;5.64;100.00;92625.34;5028557;28;20049;-80
2023/12/25 20:34:39;;;;;;;12.57;6.03;;;;;;;5.66;100.00;92629.53;5034651;28;20047;-80
2023/12/25 20:37:05;;;;;;;11.90;5.03;;;;;;;5.64;100.00;92625.34;5038476;28;20431;-79
2023/12/25 20:39:31;;;;;;;14.45;4.93;;;;;;;5.69;100.00;92629.00;5035675;28;20025;-79
2023/12/25 20:41:56;;;;;;;15.75;4.60;;;;;;;5.70;100.00;92625.38;5033102;28;20452;-79
2023/12/25 20:44:22;;;;;;;12.20;4.40;;;;;;;5.71;100.00;92625.13;5025929;28;20038;-79
2023/12/25 20:46:48;;;;;;;14.52;4.32;;;;;;;5.72;100.00;92626.69;5040936;28;20088;-79
2023/12/25 20:49:13;;;;;;;15.40;4.93;;;;;;;5.73;100.00;92627.47;5038306;28;20041;-79
2023/12/25 20:51:41;;;;;;;13.75;4.63;;;;;;;5.72;100.00;92631.91;5035079;28;20030;-80
2023/12/25 20:54:08;;;;;;;10.93;4.30;;;;;;;5.73;100.00;92627.47;5036073;28;20033;-80
2023/12/25 20:56:39;;;;;;;13.40;4.25;;;;;;;5.73;100.00;92635.25;5036543;28;20057;-79
2023/12/25 20:59:05;;;;;;;10.60;3.88;;;;;;;5.72;100.00;92631.91;5031160;28;20512;-79
2023/12/25 21:01:31;;;;;;;16.25;5.30;;;;;;;5.70;100.00;92639.16;5022735;28;20056;-79
2023/12/25 21:03:57;;;;;;;12.20;4.28;;;;;;;5.73;100.00;92637.88;5030836;28;20485;-79
2023/12/25 21:06:22;;;;;;;15.70;5.03;;;;;;;5.74;100.00;92642.81;5027686;28;20033;-79
2023/12/25 21:08:51;;;;;;;8.00;4.70;;;;;;;5.74;100.00;92640.22;5037726;28;20040;-79
2023/12/25 21:11:21;;;;;;;12.38;4.82;;;;;;;5.77;100.00;92646.72;5027851;28;20025;-79
2023/12/25 21:13:50;;;;;;;12.02;4.90;;;;;;;5.77;100.00;92647.50;5037410;28;20128;-79
2023/12/25 21:16:16;;;;;;;11.45;4.95;;;;;;;5.81;100.00;92642.59;5016512;28;20043;-79
2023/12/25 21:18:42;;;;;;;10.98;4.45;;;;;;;5.80;100.00;92646.97;5032540;28;20033;-79
2023/12/25 21:21:08;;;;;;;13.65;4.50;;;;;;;5.81;100.00;92647.78;5024308;28;20033;-79
2023/12/25 21:23:34;;;;;;;11.38;4.40;;;;;;;5.80;100.00;92654.78;5024424;28;20051;-79
2023/12/25 21:26:00;;;;;;;9.48;4.07;;;;;;;5.80;100.00;92651.41;5026462;28;20037;-79
2023/12/25 21:28:25;;;;;;;17.02;4.30;;;;;;;5.79;100.00;92655.81;5029103;28;20102;-79
2023/12/25 21:30:51;;;;;;;13.98;4.68;;;;;;;5.78;100.00;92651.66;5029286;28;20029;-79
2023/12/25 21:33:17;;;;;;;11.10;4.78;;;;;;;5.80;100.00;92654.00;5024897;28;20053;-79
2023/12/25 21:35:45;;;;;;;15.90;4.70;;;;;;;5.82;100.00;92652.72;5019126;28;20034;-79
2023/12/25 21:38:10;;;;;;;13.43;4.35;;;;;;;5.86;100.00;92652.22;5027935;28;20104;-79
2023/12/25 21:40:36;;;;;;;17.38;4.90;;;;;;;5.86;100.00;92655.59;5030817;28;20120;-79
2023/12/25 21:43:02;;;;;;;15.07;4.25;;;;;;;5.92;100.00;92662.38;5032692;28;20038;-80
2023/12/25 21:45:28;;;;;;;11.57;5.95;;;;;;;5.95;100.00;92655.94;5032014;28;20040;-79
2023/12/25 21:47:54;;;;;;;14.80;6.78;;;;;;;5.95;100.00;92659.31;5017115;28;20046;-79
2023/12/25 21:50:19;;;;;;;15.52;5.90;;;;;;;5.97;100.00;92659.06;5032438;28;20513;-79
2023/12/25 21:52:45;;;;;;;12.95;5.57;;;;;;;5.94;100.00;92652.53;5029359;28;20438;-80
2023/12/25 21:55:11;;;;;;;13.75;6.75;;;;;;;6.07;100.00;92666.88;5028962;28;20040;-79
2023/12/25 21:57:36;;;;;;;15.07;5.65;;;;;;;6.08;100.00;92659.88;5029766;28;20069;-79
2023/12/25 22:00:05;;;;;;;16.42;5.18;;;;;;;6.08;100.00;92665.88;5031962;28;20551;-79
2023/12/25 22:02:31;;;;;;;14.68;5.35;;;;;;;6.26;100.00;92664.66;5031726;28;20045;-79
2023/12/25 22:04:57;;;;;;;10.25;5.30;;;;;;;6.38;100.00;92665.19;5032158;28;20468;-79
2023/12/25 22:07:22;;;;;;;15.63;5.72;;;;;;;6.30;100.00;92668.28;5031662;28;20037;-79
2023/12/25 22:09:48;;;;;;;11.88;4.97;;;;;;;6.24;100.00;92664.13;5031744;28;20025;-79
2023/12/25 22:12:14;;;;;;;14.07;5.50;;;;;;;6.22;100.00;92666.97;5030879;28;20096;-79
2023/12/25 22:14:39;;;;;;;13.70;5.45;;;;;;;6.22;100.00;92668.78;5014461;28;20033;-79
2023/12/25 22:17:05;;;;;;;11.43;5.18;;;;;;;6.22;100.00;92673.97;5031675;28;20075;-79
2023/12/25 22:19:31;;;;;;;16.08;5.35;;;;;;;6.22;100.00;92676.56;5026246;28;20060;-79
2023/12/25 22:21:57;;;;;;;16.85;6.40;;;;;;;6.17;100.00;92668.75;5031492;28;20179;-79
